sensor_id;sensor_type;location;lat;lon;timestamp;temperature;humidity
27506;DHT22;14939;43.596;1.320;2024-02-26T00:01:41;8.20;99.90
27506;DHT22;14939;43.596;1.320;2024-02-26T00:04:09;8.20;99.90
27506;DHT22;14939;43.596;1.320;2024-02-26T00:06:35;8.20;99.90
27506;DHT22;14939;43.596;1.320;2024-02-26T00:09:00;8.30;99.90
27506;DHT22;14939;43.596;1.320;2024-02-26T00:11:28;8.30;99.90
27506;DHT22;14939;43.596;1.320;2024-02-26T00:13:53;8.30;99.90
27506;DHT22;14939;43.596;1.320;2024-02-26T00:16:19;8.20;99.90
27506;DHT22;14939;43.596;1.320;2024-02-26T00:18:44;8.10;99.90
27506;DHT22;14939;43.596;1.320;2024-02-26T00:21:10;8.10;99.90
27506;DHT22;14939;43.596;1.320;2024-02-26T00:23:36;8.00;99.90
27506;DHT22;14939;43.596;1.320;2024-02-26T00:26:01;8.00;99.90
27506;DHT22;14939;43.596;1.320;2024-02-26T00:28:27;7.90;99.90
27506;DHT22;14939;43.596;1.320;2024-02-26T00:30:54;7.90;99.90
27506;DHT22;14939;43.596;1.320;2024-02-26T00:33:21;8.00;99.90
27506;DHT22;14939;43.596;1.320;2024-02-26T00:35:47;7.90;99.90
27506;DHT22;14939;43.596;1.320;2024-02-26T00:38:13;8.10;99.90
27506;DHT22;14939;43.596;1.320;2024-02-26T00:40:38;8.20;99.90
27506;DHT22;14939;43.596;1.320;2024-02-26T00:43:04;8.10;99.90
27506;DHT22;14939;43.596;1.320;2024-02-26T00:45:30;8.20;99.90
27506;DHT22;14939;43.596;1.320;2024-02-26T00:47:57;8.30;99.90
27506;DHT22;14939;43.596;1.320;2024-02-26T00:50:23;8.30;99.90
27506;DHT22;14939;43.596;1.320;2024-02-26T00:52:49;8.30;99.90
27506;DHT22;14939;43.596;1.320;2024-02-26T00:55:14;8.20;99.90
27506;DHT22;14939;43.596;1.320;2024-02-26T00:57:40;8.20;99.90
27506;DHT22;14939;43.596;1.320;2024-02-26T01:00:06;8.40;99.90
27506;DHT22;14939;43.596;1.320;2024-02-26T01:02:34;8.50;99.90
27506;DHT22;14939;43.596;1.320;2024-02-26T01:05:00;8.40;99.90
27506;DHT22;14939;43.596;1.320;2024-02-26T01:07:25;8.20;99.90
27506;DHT22;14939;43.596;1.320;2024-02-26T01:09:51;8.10;99.90
27506;DHT22;14939;43.596;1.320;2024-02-26T01:12:16;8.10;99.90
27506;DHT22;14939;43.596;1.320;2024-02-26T01:14:42;8.00;99.90
27506;DHT22;14939;43.596;1.320;2024-02-26T01:17:08;7.90;99.90
27506;DHT22;14939;43.596;1.320;2024-02-26T01:19:33;7.80;99.90
27506;DHT22;14939;43.596;1.320;2024-02-26T01:21:59;7.80;99.90
27506;DHT22;14939;43.596;1.320;2024-02-26T01:24:24;7.80;99.90
27506;DHT22;14939;43.596;1.320;2024-02-26T01:26:50;7.70;99.90
27506;DHT22;14939;43.596;1.320;2024-02-26T01:29:16;7.70;99.90
27506;DHT22;14939;43.596;1.320;2024-02-26T01:31:41;7.60;99.90
27506;DHT22;14939;43.596;1.320;2024-02-26T01:34:07;7.60;99.90
27506;DHT22;14939;43.596;1.320;2024-02-26T01:36:33;7.50;99.90
27506;DHT22;14939;43.596;1.320;2024-02-26T01:38:59;7.50;99.90
27506;DHT22;14939;43.596;1.320;2024-02-26T01:41:25;7.40;99.90
27506;DHT22;14939;43.596;1.320;2024-02-26T01:43:51;7.40;99.90
27506;DHT22;14939;43.596;1.320;2024-02-26T01:46:17;7.40;99.90
27506;DHT22;14939;43.596;1.320;2024-02-26T01:48:44;7.40;99.90
27506;DHT22;14939;43.596;1.320;2024-02-26T01:51:12;7.30;99.90
27506;DHT22;14939;43.596;1.320;2024-02-26T01:53:39;7.30;99.90
27506;DHT22;14939;43.596;1.320;2024-02-26T01:56:05;7.20;99.90
27506;DHT22;14939;43.596;1.320;2024-02-26T01:58:31;7.20;99.90
27506;DHT22;14939;43.596;1.320;2024-02-26T02:00:58;7.20;99.90
27506;DHT22;14939;43.596;1.320;2024-02-26T02:03:24;7.20;99.90
27506;DHT22;14939;43.596;1.320;2024-02-26T02:05:50;7.20;99.90
27506;DHT22;14939;43.596;1.320;2024-02-26T02:08:16;7.20;99.90
27506;DHT22;14939;43.596;1.320;2024-02-26T02:10:45;7.20;99.90
27506;DHT22;14939;43.596;1.320;2024-02-26T02:13:13;7.30;99.90
27506;DHT22;14939;43.596;1.320;2024-02-26T02:15:39;7.30;99.90
27506;DHT22;14939;43.596;1.320;2024-02-26T02:18:05;7.30;99.90
27506;DHT22;14939;43.596;1.320;2024-02-26T02:20:35;7.30;99.90
27506;DHT22;14939;43.596;1.320;2024-02-26T02:23:01;7.30;99.90
27506;DHT22;14939;43.596;1.320;2024-02-26T02:25:27;7.30;99.90
27506;DHT22;14939;43.596;1.320;2024-02-26T02:27:56;7.20;99.90
27506;DHT22;14939;43.596;1.320;2024-02-26T02:30:28;7.20;99.90
27506;DHT22;14939;43.596;1.320;2024-02-26T02:32:54;7.20;99.90
27506;DHT22;14939;43.596;1.320;2024-02-26T02:35:20;7.20;99.90
27506;DHT22;14939;43.596;1.320;2024-02-26T02:37:46;7.10;99.90
27506;DHT22;14939;43.596;1.320;2024-02-26T02:40:11;7.20;99.90
27506;DHT22;14939;43.596;1.320;2024-02-26T02:42:37;7.30;99.90
27506;DHT22;14939;43.596;1.320;2024-02-26T02:45:03;7.30;99.90
27506;DHT22;14939;43.596;1.320;2024-02-26T02:47:29;7.40;99.90
27506;DHT22;14939;43.596;1.320;2024-02-26T02:49:54;7.50;99.90
27506;DHT22;14939;43.596;1.320;2024-02-26T02:52:20;7.50;99.90
27506;DHT22;14939;43.596;1.320;2024-02-26T02:54:46;7.50;99.90
27506;DHT22;14939;43.596;1.320;2024-02-26T02:57:12;7.50;99.90
27506;DHT22;14939;43.596;1.320;2024-02-26T02:59:38;7.50;99.90
27506;DHT22;14939;43.596;1.320;2024-02-26T03:02:03;7.70;99.90
27506;DHT22;14939;43.596;1.320;2024-02-26T03:04:30;7.70;99.90
27506;DHT22;14939;43.596;1.320;2024-02-26T03:06:55;7.80;99.90
27506;DHT22;14939;43.596;1.320;2024-02-26T03:09:21;7.80;99.90
27506;DHT22;14939;43.596;1.320;2024-02-26T03:11:46;7.80;99.90
27506;DHT22;14939;43.596;1.320;2024-02-26T03:14:12;7.70;99.90
27506;DHT22;14939;43.596;1.320;2024-02-26T03:16:38;7.60;99.90
27506;DHT22;14939;43.596;1.320;2024-02-26T03:19:03;7.70;99.90
27506;DHT22;14939;43.596;1.320;2024-02-26T03:21:29;7.70;99.90
27506;DHT22;14939;43.596;1.320;2024-02-26T03:23:55;7.60;99.90
27506;DHT22;14939;43.596;1.320;2024-02-26T03:26:20;7.60;99.90
27506;DHT22;14939;43.596;1.320;2024-02-26T03:28:47;7.60;99.90
27506;DHT22;14939;43.596;1.320;2024-02-26T03:31:13;7.70;99.90
27506;DHT22;14939;43.596;1.320;2024-02-26T03:33:39;7.80;99.90
27506;DHT22;14939;43.596;1.320;2024-02-26T03:36:05;7.80;99.90
27506;DHT22;14939;43.596;1.320;2024-02-26T03:38:31;7.90;99.90
27506;DHT22;14939;43.596;1.320;2024-02-26T03:40:56;7.90;99.90
27506;DHT22;14939;43.596;1.320;2024-02-26T03:43:22;8.00;99.90
27506;DHT22;14939;43.596;1.320;2024-02-26T03:45:47;8.00;99.90
27506;DHT22;14939;43.596;1.320;2024-02-26T03:48:13;8.00;99.90
27506;DHT22;14939;43.596;1.320;2024-02-26T03:50:39;8.10;99.90
27506;DHT22;14939;43.596;1.320;2024-02-26T03:53:05;8.10;99.90
27506;DHT22;14939;43.596;1.320;2024-02-26T03:55:30;8.20;99.90
27506;DHT22;14939;43.596;1.320;2024-02-26T03:57:56;8.30;99.90
27506;DHT22;14939;43.596;1.320;2024-02-26T04:00:22;8.40;99.90
27506;DHT22;14939;43.596;1.320;2024-02-26T04:02:48;8.50;99.90
27506;DHT22;14939;43.596;1.320;2024-02-26T04:05:14;8.60;99.90
27506;DHT22;14939;43.596;1.320;2024-02-26T04:07:40;8.60;99.90
27506;DHT22;14939;43.596;1.320;2024-02-26T04:10:10;8.70;99.90
27506;DHT22;14939;43.596;1.320;2024-02-26T04:12:37;8.80;99.90
27506;DHT22;14939;43.596;1.320;2024-02-26T04:15:03;8.90;99.90
27506;DHT22;14939;43.596;1.320;2024-02-26T04:17:30;8.80;99.90
27506;DHT22;14939;43.596;1.320;2024-02-26T04:19:55;8.90;99.90
27506;DHT22;14939;43.596;1.320;2024-02-26T04:22:21;8.90;99.90
27506;DHT22;14939;43.596;1.320;2024-02-26T04:24:46;8.90;99.90
27506;DHT22;14939;43.596;1.320;2024-02-26T04:27:12;9.00;99.90
27506;DHT22;14939;43.596;1.320;2024-02-26T04:29:38;9.00;99.90
27506;DHT22;14939;43.596;1.320;2024-02-26T04:32:03;9.00;99.90
27506;DHT22;14939;43.596;1.320;2024-02-26T04:34:30;9.00;99.90
27506;DHT22;14939;43.596;1.320;2024-02-26T04:36:56;9.00;99.90
27506;DHT22;14939;43.596;1.320;2024-02-26T04:39:22;9.00;99.90
27506;DHT22;14939;43.596;1.320;2024-02-26T04:41:47;8.90;99.90
27506;DHT22;14939;43.596;1.320;2024-02-26T04:44:13;8.90;99.90
27506;DHT22;14939;43.596;1.320;2024-02-26T04:46:38;8.90;99.90
27506;DHT22;14939;43.596;1.320;2024-02-26T04:49:04;8.90;99.90
27506;DHT22;14939;43.596;1.320;2024-02-26T04:51:30;8.90;99.90
27506;DHT22;14939;43.596;1.320;2024-02-26T04:53:55;8.80;99.90
27506;DHT22;14939;43.596;1.320;2024-02-26T04:56:21;8.80;99.90
27506;DHT22;14939;43.596;1.320;2024-02-26T04:58:47;8.70;99.90
27506;DHT22;14939;43.596;1.320;2024-02-26T05:01:13;8.70;99.90
27506;DHT22;14939;43.596;1.320;2024-02-26T05:03:39;8.60;99.90
27506;DHT22;14939;43.596;1.320;2024-02-26T05:06:05;8.60;99.90
27506;DHT22;14939;43.596;1.320;2024-02-26T05:08:31;8.70;99.90
27506;DHT22;14939;43.596;1.320;2024-02-26T05:10:56;8.60;99.90
27506;DHT22;14939;43.596;1.320;2024-02-26T05:13:22;8.70;99.90
27506;DHT22;14939;43.596;1.320;2024-02-26T05:15:48;8.60;99.90
27506;DHT22;14939;43.596;1.320;2024-02-26T05:18:15;8.50;99.90
27506;DHT22;14939;43.596;1.320;2024-02-26T05:20:41;8.50;99.90
27506;DHT22;14939;43.596;1.320;2024-02-26T05:23:06;8.40;99.90
27506;DHT22;14939;43.596;1.320;2024-02-26T05:25:32;8.30;99.90
27506;DHT22;14939;43.596;1.320;2024-02-26T05:27:58;8.30;99.90
27506;DHT22;14939;43.596;1.320;2024-02-26T05:30:23;8.30;99.90
27506;DHT22;14939;43.596;1.320;2024-02-26T05:32:49;8.40;99.90
27506;DHT22;14939;43.596;1.320;2024-02-26T05:35:14;8.40;99.90
27506;DHT22;14939;43.596;1.320;2024-02-26T05:37:40;8.30;99.90
27506;DHT22;14939;43.596;1.320;2024-02-26T05:40:06;8.30;99.90
27506;DHT22;14939;43.596;1.320;2024-02-26T05:42:32;8.30;99.90
27506;DHT22;14939;43.596;1.320;2024-02-26T05:44:58;8.30;99.90
27506;DHT22;14939;43.596;1.320;2024-02-26T05:47:24;8.20;99.90
27506;DHT22;14939;43.596;1.320;2024-02-26T05:49:50;8.20;99.90
27506;DHT22;14939;43.596;1.320;2024-02-26T05:52:15;8.20;99.90
27506;DHT22;14939;43.596;1.320;2024-02-26T05:54:41;8.30;99.90
27506;DHT22;14939;43.596;1.320;2024-02-26T05:57:06;8.30;99.90
27506;DHT22;14939;43.596;1.320;2024-02-26T05:59:32;8.40;99.90
27506;DHT22;14939;43.596;1.320;2024-02-26T06:01:58;8.30;99.90
27506;DHT22;14939;43.596;1.320;2024-02-26T06:04:24;8.30;99.90
27506;DHT22;14939;43.596;1.320;2024-02-26T06:06:49;8.30;99.90
27506;DHT22;14939;43.596;1.320;2024-02-26T06:09:15;8.40;99.90
27506;DHT22;14939;43.596;1.320;2024-02-26T06:11:41;8.40;1.00
27506;DHT22;14939;43.596;1.320;2024-02-26T06:14:06;8.40;99.90
27506;DHT22;14939;43.596;1.320;2024-02-26T06:16:32;8.50;1.00
27506;DHT22;14939;43.596;1.320;2024-02-26T06:18:59;8.70;1.00
27506;DHT22;14939;43.596;1.320;2024-02-26T06:21:25;8.70;99.90
27506;DHT22;14939;43.596;1.320;2024-02-26T06:23:51;8.70;99.90
27506;DHT22;14939;43.596;1.320;2024-02-26T06:26:17;8.70;99.90
27506;DHT22;14939;43.596;1.320;2024-02-26T06:28:42;8.90;99.90
27506;DHT22;14939;43.596;1.320;2024-02-26T06:31:08;8.80;90.70
27506;DHT22;14939;43.596;1.320;2024-02-26T06:33:34;8.90;54.10
27506;DHT22;14939;43.596;1.320;2024-02-26T06:36:00;8.70;37.20
27506;DHT22;14939;43.596;1.320;2024-02-26T06:38:25;8.80;25.70
27506;DHT22;14939;43.596;1.320;2024-02-26T06:40:51;8.70;20.20
27506;DHT22;14939;43.596;1.320;2024-02-26T06:43:16;8.70;15.70
27506;DHT22;14939;43.596;1.320;2024-02-26T06:45:42;8.80;12.60
27506;DHT22;14939;43.596;1.320;2024-02-26T06:48:08;8.80;7.00
27506;DHT22;14939;43.596;1.320;2024-02-26T06:50:33;8.80;5.00
27506;DHT22;14939;43.596;1.320;2024-02-26T06:52:59;8.70;3.20
27506;DHT22;14939;43.596;1.320;2024-02-26T06:55:25;8.60;1.00
27506;DHT22;14939;43.596;1.320;2024-02-26T06:57:50;8.70;1.00
27506;DHT22;14939;43.596;1.320;2024-02-26T07:00:16;8.70;1.00
27506;DHT22;14939;43.596;1.320;2024-02-26T07:02:43;8.80;1.00
27506;DHT22;14939;43.596;1.320;2024-02-26T07:05:09;8.70;1.00
27506;DHT22;14939;43.596;1.320;2024-02-26T07:07:34;8.80;1.00
27506;DHT22;14939;43.596;1.320;2024-02-26T07:10:00;8.90;1.00
27506;DHT22;14939;43.596;1.320;2024-02-26T07:12:29;8.80;1.00
27506;DHT22;14939;43.596;1.320;2024-02-26T07:14:55;8.80;1.00
27506;DHT22;14939;43.596;1.320;2024-02-26T07:17:20;8.80;1.00
27506;DHT22;14939;43.596;1.320;2024-02-26T07:19:46;8.80;1.00
27506;DHT22;14939;43.596;1.320;2024-02-26T07:22:12;8.70;1.00
27506;DHT22;14939;43.596;1.320;2024-02-26T07:24:37;8.80;1.00
27506;DHT22;14939;43.596;1.320;2024-02-26T07:27:03;8.90;1.00
27506;DHT22;14939;43.596;1.320;2024-02-26T07:29:29;8.90;1.00
27506;DHT22;14939;43.596;1.320;2024-02-26T07:31:55;9.10;1.00
27506;DHT22;14939;43.596;1.320;2024-02-26T07:34:21;9.10;1.00
27506;DHT22;14939;43.596;1.320;2024-02-26T07:36:53;9.10;1.00
27506;DHT22;14939;43.596;1.320;2024-02-26T07:39:19;9.10;1.00
27506;DHT22;14939;43.596;1.320;2024-02-26T07:41:44;9.10;1.00
27506;DHT22;14939;43.596;1.320;2024-02-26T07:44:12;9.20;1.00
27506;DHT22;14939;43.596;1.320;2024-02-26T07:46:38;9.20;1.00
27506;DHT22;14939;43.596;1.320;2024-02-26T07:49:03;9.20;1.00
27506;DHT22;14939;43.596;1.320;2024-02-26T07:51:29;9.40;1.00
27506;DHT22;14939;43.596;1.320;2024-02-26T07:53:54;9.50;1.00
27506;DHT22;14939;43.596;1.320;2024-02-26T07:56:20;9.50;1.00
27506;DHT22;14939;43.596;1.320;2024-02-26T07:58:45;9.50;1.00
27506;DHT22;14939;43.596;1.320;2024-02-26T08:01:13;9.60;1.00
27506;DHT22;14939;43.596;1.320;2024-02-26T08:03:39;9.60;1.00
27506;DHT22;14939;43.596;1.320;2024-02-26T08:06:05;9.60;1.00
27506;DHT22;14939;43.596;1.320;2024-02-26T08:08:31;9.70;1.00
27506;DHT22;14939;43.596;1.320;2024-02-26T08:10:57;9.60;1.00
27506;DHT22;14939;43.596;1.320;2024-02-26T08:13:22;9.70;1.00
27506;DHT22;14939;43.596;1.320;2024-02-26T08:15:48;9.70;1.00
27506;DHT22;14939;43.596;1.320;2024-02-26T08:18:13;9.80;1.00
27506;DHT22;14939;43.596;1.320;2024-02-26T08:20:39;10.00;1.00
27506;DHT22;14939;43.596;1.320;2024-02-26T08:23:05;10.10;1.00
27506;DHT22;14939;43.596;1.320;2024-02-26T08:25:30;10.00;1.00
27506;DHT22;14939;43.596;1.320;2024-02-26T08:27:56;10.10;1.00
27506;DHT22;14939;43.596;1.320;2024-02-26T08:30:21;10.10;1.00
27506;DHT22;14939;43.596;1.320;2024-02-26T08:32:48;10.10;1.00
27506;DHT22;14939;43.596;1.320;2024-02-26T08:35:13;10.10;1.00
27506;DHT22;14939;43.596;1.320;2024-02-26T08:37:39;10.20;1.00
27506;DHT22;14939;43.596;1.320;2024-02-26T08:40:06;10.20;1.00
27506;DHT22;14939;43.596;1.320;2024-02-26T08:42:32;10.30;1.00
27506;DHT22;14939;43.596;1.320;2024-02-26T08:44:57;10.30;1.00
27506;DHT22;14939;43.596;1.320;2024-02-26T08:47:25;10.30;1.00
27506;DHT22;14939;43.596;1.320;2024-02-26T08:49:51;10.40;1.00
27506;DHT22;14939;43.596;1.320;2024-02-26T08:52:17;10.40;1.00
27506;DHT22;14939;43.596;1.320;2024-02-26T08:54:42;10.40;1.00
27506;DHT22;14939;43.596;1.320;2024-02-26T08:57:08;10.50;1.00
27506;DHT22;14939;43.596;1.320;2024-02-26T08:59:34;10.50;1.00
27506;DHT22;14939;43.596;1.320;2024-02-26T09:01:59;10.50;1.00
27506;DHT22;14939;43.596;1.320;2024-02-26T09:04:25;10.60;1.00
27506;DHT22;14939;43.596;1.320;2024-02-26T09:06:51;10.60;1.00
27506;DHT22;14939;43.596;1.320;2024-02-26T09:09:17;10.60;1.00
27506;DHT22;14939;43.596;1.320;2024-02-26T09:11:43;10.70;1.00
27506;DHT22;14939;43.596;1.320;2024-02-26T09:14:08;10.70;1.00
27506;DHT22;14939;43.596;1.320;2024-02-26T09:16:34;10.90;1.00
27506;DHT22;14939;43.596;1.320;2024-02-26T09:18:59;11.00;1.00
27506;DHT22;14939;43.596;1.320;2024-02-26T09:21:25;11.20;1.00
27506;DHT22;14939;43.596;1.320;2024-02-26T09:23:52;11.20;1.00
27506;DHT22;14939;43.596;1.320;2024-02-26T09:26:18;11.00;1.00
27506;DHT22;14939;43.596;1.320;2024-02-26T09:28:44;10.90;1.00
27506;DHT22;14939;43.596;1.320;2024-02-26T09:31:10;10.80;1.00
27506;DHT22;14939;43.596;1.320;2024-02-26T09:33:36;10.90;1.00
27506;DHT22;14939;43.596;1.320;2024-02-26T09:36:02;11.00;1.00
27506;DHT22;14939;43.596;1.320;2024-02-26T09:38:28;11.00;1.00
27506;DHT22;14939;43.596;1.320;2024-02-26T09:40:56;11.10;1.00
27506;DHT22;14939;43.596;1.320;2024-02-26T09:43:23;11.10;1.00
27506;DHT22;14939;43.596;1.320;2024-02-26T09:45:53;11.20;1.00
27506;DHT22;14939;43.596;1.320;2024-02-26T09:48:20;11.20;1.00
27506;DHT22;14939;43.596;1.320;2024-02-26T09:50:46;11.40;1.00
27506;DHT22;14939;43.596;1.320;2024-02-26T09:53:12;11.50;1.00
27506;DHT22;14939;43.596;1.320;2024-02-26T09:55:40;11.70;1.00
27506;DHT22;14939;43.596;1.320;2024-02-26T09:58:06;11.90;1.00
27506;DHT22;14939;43.596;1.320;2024-02-26T10:00:37;12.00;1.00
27506;DHT22;14939;43.596;1.320;2024-02-26T10:03:05;12.10;1.00
27506;DHT22;14939;43.596;1.320;2024-02-26T10:05:32;12.20;1.00
27506;DHT22;14939;43.596;1.320;2024-02-26T10:07:59;12.30;1.00
27506;DHT22;14939;43.596;1.320;2024-02-26T10:10:28;12.40;1.00
27506;DHT22;14939;43.596;1.320;2024-02-26T10:12:54;12.30;1.00
27506;DHT22;14939;43.596;1.320;2024-02-26T10:15:20;12.10;1.00
27506;DHT22;14939;43.596;1.320;2024-02-26T10:17:46;12.00;1.00
27506;DHT22;14939;43.596;1.320;2024-02-26T10:22:38;11.90;1.00
27506;DHT22;14939;43.596;1.320;2024-02-26T10:25:04;12.00;1.00
27506;DHT22;14939;43.596;1.320;2024-02-26T10:27:30;12.10;1.00
27506;DHT22;14939;43.596;1.320;2024-02-26T10:29:57;12.20;1.00
27506;DHT22;14939;43.596;1.320;2024-02-26T10:32:22;12.20;1.00
27506;DHT22;14939;43.596;1.320;2024-02-26T10:34:48;12.30;1.00
27506;DHT22;14939;43.596;1.320;2024-02-26T10:37:14;12.40;1.00
27506;DHT22;14939;43.596;1.320;2024-02-26T10:39:46;12.40;1.00
27506;DHT22;14939;43.596;1.320;2024-02-26T10:42:12;12.30;1.00
27506;DHT22;14939;43.596;1.320;2024-02-26T10:44:40;12.20;1.00
27506;DHT22;14939;43.596;1.320;2024-02-26T10:47:07;12.30;1.00
27506;DHT22;14939;43.596;1.320;2024-02-26T10:49:35;12.30;1.00
27506;DHT22;14939;43.596;1.320;2024-02-26T10:52:01;12.40;1.00
27506;DHT22;14939;43.596;1.320;2024-02-26T10:54:29;12.40;1.00
27506;DHT22;14939;43.596;1.320;2024-02-26T10:56:57;12.50;1.00
27506;DHT22;14939;43.596;1.320;2024-02-26T10:59:26;12.50;1.00
27506;DHT22;14939;43.596;1.320;2024-02-26T11:01:52;12.70;1.00
27506;DHT22;14939;43.596;1.320;2024-02-26T11:04:18;12.70;1.00
27506;DHT22;14939;43.596;1.320;2024-02-26T11:06:45;12.90;1.00
27506;DHT22;14939;43.596;1.320;2024-02-26T11:09:13;13.20;1.00
27506;DHT22;14939;43.596;1.320;2024-02-26T11:11:40;13.50;1.00
27506;DHT22;14939;43.596;1.320;2024-02-26T11:14:08;13.80;1.00
27506;DHT22;14939;43.596;1.320;2024-02-26T11:16:35;13.80;1.00
27506;DHT22;14939;43.596;1.320;2024-02-26T11:19:02;13.80;1.00
27506;DHT22;14939;43.596;1.320;2024-02-26T11:21:28;13.80;1.00
27506;DHT22;14939;43.596;1.320;2024-02-26T11:24:07;14.00;1.00
27506;DHT22;14939;43.596;1.320;2024-02-26T11:26:36;13.80;1.00
27506;DHT22;14939;43.596;1.320;2024-02-26T11:29:04;13.80;1.00
27506;DHT22;14939;43.596;1.320;2024-02-26T11:31:30;13.80;1.00
27506;DHT22;14939;43.596;1.320;2024-02-26T11:33:56;13.50;1.00
27506;DHT22;14939;43.596;1.320;2024-02-26T11:36:23;13.50;1.00
27506;DHT22;14939;43.596;1.320;2024-02-26T11:38:49;13.60;1.00
27506;DHT22;14939;43.596;1.320;2024-02-26T11:41:18;13.80;1.00
27506;DHT22;14939;43.596;1.320;2024-02-26T11:43:57;13.80;1.00
27506;DHT22;14939;43.596;1.320;2024-02-26T11:46:31;14.00;1.00
27506;DHT22;14939;43.596;1.320;2024-02-26T11:51:51;14.10;1.00
27506;DHT22;14939;43.596;1.320;2024-02-26T11:54:38;14.10;1.00
27506;DHT22;14939;43.596;1.320;2024-02-26T11:57:04;13.90;1.00
27506;DHT22;14939;43.596;1.320;2024-02-26T11:59:39;14.00;1.00
27506;DHT22;14939;43.596;1.320;2024-02-26T12:02:07;13.90;1.00
27506;DHT22;14939;43.596;1.320;2024-02-26T12:04:33;13.80;1.00
27506;DHT22;14939;43.596;1.320;2024-02-26T12:07:02;14.10;1.00
27506;DHT22;14939;43.596;1.320;2024-02-26T12:12:05;13.80;1.00
27506;DHT22;14939;43.596;1.320;2024-02-26T12:14:40;13.90;1.00
27506;DHT22;14939;43.596;1.320;2024-02-26T12:17:23;14.40;1.00
27506;DHT22;14939;43.596;1.320;2024-02-26T12:19:49;14.50;1.00
27506;DHT22;14939;43.596;1.320;2024-02-26T12:22:16;14.60;1.00
27506;DHT22;14939;43.596;1.320;2024-02-26T12:24:44;14.70;1.00
27506;DHT22;14939;43.596;1.320;2024-02-26T12:27:10;14.50;1.00
27506;DHT22;14939;43.596;1.320;2024-02-26T12:29:35;14.40;1.00
27506;DHT22;14939;43.596;1.320;2024-02-26T12:32:03;14.60;1.00
27506;DHT22;14939;43.596;1.320;2024-02-26T12:34:29;14.60;1.00
27506;DHT22;14939;43.596;1.320;2024-02-26T12:36:56;14.70;1.00
27506;DHT22;14939;43.596;1.320;2024-02-26T12:39:22;14.50;1.00
27506;DHT22;14939;43.596;1.320;2024-02-26T12:41:47;14.50;1.00
27506;DHT22;14939;43.596;1.320;2024-02-26T12:44:25;14.50;1.00
27506;DHT22;14939;43.596;1.320;2024-02-26T12:46:57;14.70;1.00
27506;DHT22;14939;43.596;1.320;2024-02-26T12:49:24;14.70;1.00
27506;DHT22;14939;43.596;1.320;2024-02-26T12:51:51;14.70;1.00
27506;DHT22;14939;43.596;1.320;2024-02-26T12:54:16;14.30;1.00
27506;DHT22;14939;43.596;1.320;2024-02-26T12:56:42;13.90;1.00
27506;DHT22;14939;43.596;1.320;2024-02-26T12:59:08;13.90;1.00
27506;DHT22;14939;43.596;1.320;2024-02-26T13:01:34;14.00;1.00
27506;DHT22;14939;43.596;1.320;2024-02-26T13:03:59;14.20;1.00
27506;DHT22;14939;43.596;1.320;2024-02-26T13:06:32;14.20;1.00
27506;DHT22;14939;43.596;1.320;2024-02-26T13:08:58;14.10;1.00
27506;DHT22;14939;43.596;1.320;2024-02-26T13:11:24;13.80;1.00
27506;DHT22;14939;43.596;1.320;2024-02-26T13:13:49;13.70;1.00
27506;DHT22;14939;43.596;1.320;2024-02-26T13:16:15;13.70;1.00
27506;DHT22;14939;43.596;1.320;2024-02-26T13:18:41;13.70;1.00
27506;DHT22;14939;43.596;1.320;2024-02-26T13:21:15;13.80;1.00
27506;DHT22;14939;43.596;1.320;2024-02-26T13:23:41;13.60;1.00
27506;DHT22;14939;43.596;1.320;2024-02-26T13:26:08;13.40;1.00
27506;DHT22;14939;43.596;1.320;2024-02-26T13:28:34;13.30;1.00
27506;DHT22;14939;43.596;1.320;2024-02-26T13:31:01;13.30;1.00
27506;DHT22;14939;43.596;1.320;2024-02-26T13:33:28;13.30;1.00
27506;DHT22;14939;43.596;1.320;2024-02-26T13:35:58;13.60;1.00
27506;DHT22;14939;43.596;1.320;2024-02-26T13:38:24;13.50;1.00
27506;DHT22;14939;43.596;1.320;2024-02-26T13:40:51;13.40;1.00
27506;DHT22;14939;43.596;1.320;2024-02-26T13:43:18;13.40;1.00
27506;DHT22;14939;43.596;1.320;2024-02-26T13:45:43;13.50;1.00
27506;DHT22;14939;43.596;1.320;2024-02-26T13:48:11;13.60;1.00
27506;DHT22;14939;43.596;1.320;2024-02-26T13:50:41;13.70;1.00
27506;DHT22;14939;43.596;1.320;2024-02-26T13:53:08;13.80;1.00
27506;DHT22;14939;43.596;1.320;2024-02-26T13:55:34;13.60;1.00
27506;DHT22;14939;43.596;1.320;2024-02-26T13:58:00;13.60;1.00
27506;DHT22;14939;43.596;1.320;2024-02-26T14:00:28;13.70;1.00
27506;DHT22;14939;43.596;1.320;2024-02-26T14:02:54;13.80;1.00
27506;DHT22;14939;43.596;1.320;2024-02-26T14:05:20;13.90;1.00
27506;DHT22;14939;43.596;1.320;2024-02-26T14:07:46;13.90;1.00
27506;DHT22;14939;43.596;1.320;2024-02-26T14:10:12;14.10;1.00
27506;DHT22;14939;43.596;1.320;2024-02-26T14:12:38;14.10;1.00
27506;DHT22;14939;43.596;1.320;2024-02-26T14:15:07;14.20;1.00
27506;DHT22;14939;43.596;1.320;2024-02-26T14:17:33;14.10;1.00
27506;DHT22;14939;43.596;1.320;2024-02-26T14:19:59;13.90;1.00
27506;DHT22;14939;43.596;1.320;2024-02-26T14:22:25;13.90;1.00
27506;DHT22;14939;43.596;1.320;2024-02-26T14:24:53;13.80;1.00
27506;DHT22;14939;43.596;1.320;2024-02-26T14:27:19;13.70;1.00
27506;DHT22;14939;43.596;1.320;2024-02-26T14:29:47;13.80;1.00
27506;DHT22;14939;43.596;1.320;2024-02-26T14:32:13;13.60;1.00
27506;DHT22;14939;43.596;1.320;2024-02-26T14:34:39;13.70;1.00
27506;DHT22;14939;43.596;1.320;2024-02-26T14:37:05;13.80;1.00
27506;DHT22;14939;43.596;1.320;2024-02-26T14:39:34;13.90;1.00
27506;DHT22;14939;43.596;1.320;2024-02-26T14:42:01;13.80;1.00
27506;DHT22;14939;43.596;1.320;2024-02-26T14:44:27;13.80;1.00
27506;DHT22;14939;43.596;1.320;2024-02-26T14:46:53;13.70;1.00
27506;DHT22;14939;43.596;1.320;2024-02-26T14:49:18;13.60;1.00
27506;DHT22;14939;43.596;1.320;2024-02-26T14:51:44;13.70;1.00
27506;DHT22;14939;43.596;1.320;2024-02-26T14:54:13;13.80;1.00
27506;DHT22;14939;43.596;1.320;2024-02-26T14:56:39;13.60;1.00
27506;DHT22;14939;43.596;1.320;2024-02-26T14:59:06;13.40;1.00
27506;DHT22;14939;43.596;1.320;2024-02-26T15:01:31;13.40;1.00
27506;DHT22;14939;43.596;1.320;2024-02-26T15:03:58;13.40;1.00
27506;DHT22;14939;43.596;1.320;2024-02-26T15:06:24;13.30;1.00
27506;DHT22;14939;43.596;1.320;2024-02-26T15:08:50;13.20;1.00
27506;DHT22;14939;43.596;1.320;2024-02-26T15:11:15;13.20;1.00
27506;DHT22;14939;43.596;1.320;2024-02-26T15:13:41;13.30;1.00
27506;DHT22;14939;43.596;1.320;2024-02-26T15:16:07;13.50;1.00
27506;DHT22;14939;43.596;1.320;2024-02-26T15:18:34;13.40;1.00
27506;DHT22;14939;43.596;1.320;2024-02-26T15:21:00;13.40;1.00
27506;DHT22;14939;43.596;1.320;2024-02-26T15:23:28;13.40;1.00
27506;DHT22;14939;43.596;1.320;2024-02-26T15:25:54;13.40;1.00
27506;DHT22;14939;43.596;1.320;2024-02-26T15:28:19;13.40;1.00
27506;DHT22;14939;43.596;1.320;2024-02-26T15:30:45;13.30;1.00
27506;DHT22;14939;43.596;1.320;2024-02-26T15:33:11;13.10;1.00
27506;DHT22;14939;43.596;1.320;2024-02-26T15:35:37;13.20;1.00
27506;DHT22;14939;43.596;1.320;2024-02-26T15:38:03;13.20;1.00
27506;DHT22;14939;43.596;1.320;2024-02-26T15:40:29;13.20;1.00
27506;DHT22;14939;43.596;1.320;2024-02-26T15:42:55;13.20;1.00
27506;DHT22;14939;43.596;1.320;2024-02-26T15:45:20;13.10;1.00
27506;DHT22;14939;43.596;1.320;2024-02-26T15:47:46;13.00;1.00
27506;DHT22;14939;43.596;1.320;2024-02-26T15:50:13;12.90;1.00